Time;durP1;ratioP1;P1;durP2;ratioP2;P2;SDS_P1;SDS_P2;PMS_P1;PMS_P2;Temp;Humidity;BMP_temperature;BMP_pressure;BME280_temperature;BME280_humidity;BME280_pressure;Samples;Min_cycle;Max_cycle;Signal;HPM_P1;HPM_P2
2021/01/27 00:01:40;;;;;;;0.20;0.10;;;9.50;99.90;;;;;;20611936;28;20819;-69
2021/01/27 00:11:44;;;;;;;1.23;0.50;;;9.20;99.90;;;;;;20624077;28;20326;-69
2021/01/27 00:21:47;;;;;;;0.40;0.40;;;8.80;99.90;;;;;;20611571;28;20706;-69
2021/01/27 00:31:50;;;;;;;0.47;0.43;;;8.70;99.90;;;;;;20604067;28;20297;-69
2021/01/27 00:41:53;;;;;;;0.70;0.63;;;8.80;99.90;;;;;;20530449;28;20487;-68
2021/01/27 00:51:56;;;;;;;0.20;0.20;;;8.90;99.90;;;;;;20569465;28;20235;-68
2021/01/27 01:02:00;;;;;;;2.57;1.17;;;8.80;99.90;;;;;;20608995;28;20231;-70
2021/01/27 01:12:02;;;;;;;2.63;0.97;;;8.80;99.90;;;;;;20608882;28;20199;-70
2021/01/27 01:22:06;;;;;;;0.70;0.70;;;8.50;99.90;;;;;;20609913;28;20227;-70
2021/01/27 01:32:08;;;;;;;1.47;0.83;;;8.70;99.90;;;;;;20622211;23;20385;-71
2021/01/27 01:42:12;;;;;;;0.27;0.20;;;8.50;99.90;;;;;;20620792;28;20230;-71
2021/01/27 01:52:15;;;;;;;1.13;0.80;;;8.60;99.90;;;;;;20601010;28;20282;-71
2021/01/27 02:02:20;;;;;;;0.40;0.40;;;8.60;99.90;;;;;;20618675;28;20258;-73
2021/01/27 02:12:54;;;;;;;1.23;1.13;;;8.60;99.90;;;;;;20616226;28;20199;-72
2021/01/27 02:23:32;;;;;;;0.37;0.37;;;8.90;99.90;;;;;;20619135;28;20227;-71
2021/01/27 02:33:58;;;;;;;0.47;0.30;;;9.00;99.90;;;;;;20595780;28;20231;-71
2021/01/27 02:44:15;;;;;;;0.50;0.50;;;9.00;99.90;;;;;;20536566;28;20581;-71
2021/01/27 02:54:22;;;;;;;1.67;0.93;;;9.00;99.90;;;;;;20594818;28;20203;-72
2021/01/27 03:04:30;;;;;;;2.63;0.77;;;9.00;99.90;;;;;;20613297;28;20523;-74
2021/01/27 03:14:33;;;;;;;0.20;0.10;;;9.00;99.90;;;;;;20616415;28;20320;-73
2021/01/27 03:24:46;;;;;;;0.23;0.23;;;9.20;99.90;;;;;;20611765;28;20250;-72
2021/01/27 03:34:56;;;;;;;1.53;1.37;;;8.90;99.90;;;;;;20581806;28;20220;-73
2021/01/27 03:45:06;;;;;;;1.00;0.80;;;8.60;99.90;;;;;;20548524;28;20192;-72
2021/01/27 03:55:16;;;;;;;1.00;0.90;;;8.70;99.90;;;;;;20595053;28;20231;-72
2021/01/27 04:05:20;;;;;;;1.07;0.97;;;8.50;99.90;;;;;;20610250;28;20668;-72
2021/01/27 04:15:23;;;;;;;0.20;0.17;;;8.20;99.90;;;;;;20612057;28;20296;-72
2021/01/27 04:25:27;;;;;;;0.40;0.20;;;8.40;99.90;;;;;;20607501;28;20274;-73
2021/01/27 04:35:31;;;;;;;0.70;0.57;;;8.60;99.90;;;;;;20574182;28;20542;-73
2021/01/27 04:45:35;;;;;;;0.87;0.70;;;8.30;99.90;;;;;;20571235;28;20697;-72
2021/01/27 04:56:09;;;;;;;2.27;1.37;;;8.30;99.90;;;;;;20608827;28;20397;-72
2021/01/27 05:06:18;;;;;;;0.80;0.70;;;8.80;99.90;;;;;;20615024;28;20286;-73
2021/01/27 05:16:23;;;;;;;1.10;0.83;;;8.80;99.90;;;;;;20628140;28;20234;-72
2021/01/27 05:26:35;;;;;;;0.70;0.70;;;9.10;99.90;;;;;;20624375;28;20234;-72
2021/01/27 05:36:38;;;;;;;0.67;0.60;;;9.40;99.90;;;;;;20622813;28;20235;-72
2021/01/27 05:46:42;;;;;;;0.23;0.23;;;9.50;99.90;;;;;;20623761;28;20540;-73
2021/01/27 05:56:46;;;;;;;1.23;0.97;;;9.30;99.90;;;;;;20621657;28;20230;-75
2021/01/27 06:06:59;;;;;;;3.83;0.60;;;8.90;99.90;;;;;;20623347;28;21033;-72
2021/01/27 06:17:26;;;;;;;0.40;0.40;;;8.50;99.90;;;;;;20604605;28;20338;-72
2021/01/27 06:28:00;;;;;;;0.73;0.30;;;8.80;99.90;;;;;;20565445;28;20219;-72
2021/01/27 06:38:30;;;;;;;0.20;0.20;;;8.60;99.90;;;;;;20538549;28;20255;-74
2021/01/27 06:49:02;;;;;;;0.47;0.47;;;8.70;99.90;;;;;;20548953;28;20203;-74
2021/01/27 06:59:36;;;;;;;0.73;0.47;;;8.70;99.90;;;;;;20610973;28;20231;-75
2021/01/27 07:10:19;;;;;;;3.17;1.53;;;8.90;99.90;;;;;;20609115;28;20242;-72
2021/01/27 07:20:27;;;;;;;1.97;0.67;;;9.10;99.90;;;;;;20595411;28;20227;-71
2021/01/27 07:30:38;;;;;;;0.50;0.50;;;8.70;99.90;;;;;;20614064;28;20238;-73
2021/01/27 07:40:47;;;;;;;1.90;1.20;;;8.50;99.90;;;;;;20612201;28;20696;-74
2021/01/27 07:50:55;;;;;;;0.50;0.50;;;8.60;99.90;;;;;;20609328;28;20206;-73
2021/01/27 08:01:01;;;;;;;0.70;0.70;;;8.80;99.90;;;;;;20595826;28;20267;-71
2021/01/27 08:11:14;;;;;;;0.30;0.30;;;8.90;99.90;;;;;;20613708;28;20278;-75
2021/01/27 08:21:28;;;;;;;0.60;0.60;;;8.90;99.90;;;;;;20610565;28;20226;-74
2021/01/27 08:31:32;;;;;;;4.53;1.90;;;9.20;99.90;;;;;;20592757;28;20314;-74
2021/01/27 08:41:46;;;;;;;3.20;1.10;;;9.50;99.90;;;;;;20608199;28;20254;-73
2021/01/27 08:51:55;;;;;;;2.53;2.33;;;10.10;99.90;;;;;;20618676;28;20211;-72
2021/01/27 09:02:00;;;;;;;3.00;1.27;;;10.40;99.90;;;;;;20623977;28;20636;-74
2021/01/27 09:12:06;;;;;;;2.60;1.43;;;10.90;99.90;;;;;;20624291;28;20223;-74
2021/01/27 09:33:32;;;;;;;1.63;1.53;;;11.50;99.90;;;;;;20623340;28;20230;-74
2021/01/27 09:43:39;;;;;;;2.43;0.67;;;12.30;99.90;;;;;;20621684;28;20238;-75
2021/01/27 09:53:44;;;;;;;0.90;0.67;;;12.90;99.90;;;;;;20557554;28;20215;-76
2021/01/27 10:03:51;;;;;;;1.63;0.87;;;12.60;99.90;;;;;;20551602;28;20231;-76
2021/01/27 10:14:01;;;;;;;1.87;1.77;;;12.90;99.90;;;;;;20570010;28;20266;-75
2021/01/27 10:24:07;;;;;;;1.13;0.93;;;13.20;99.90;;;;;;20613619;28;20235;-74
2021/01/27 10:34:31;;;;;;;1.67;0.87;;;13.40;99.90;;;;;;20610794;28;20238;-74
2021/01/27 10:44:36;;;;;;;1.10;0.90;;;13.70;99.90;;;;;;20574059;28;20331;-74
2021/01/27 10:54:40;;;;;;;2.87;1.03;;;14.30;99.90;;;;;;20609378;28;20203;-74
2021/01/27 11:04:46;;;;;;;1.77;1.23;;;15.10;99.90;;;;;;20601492;28;20275;-77
2021/01/27 11:14:49;;;;;;;1.17;0.90;;;15.50;99.90;;;;;;20611536;28;20293;-75
2021/01/27 11:24:52;;;;;;;0.77;0.77;;;15.70;99.90;;;;;;20604210;28;20235;-75
2021/01/27 11:34:57;;;;;;;1.50;1.13;;;16.30;99.90;;;;;;20611731;28;20239;-75
2021/01/27 11:45:00;;;;;;;2.50;1.27;;;16.80;99.90;;;;;;20553719;28;20234;-73
2021/01/27 11:55:05;;;;;;;6.50;1.10;;;17.00;99.90;;;;;;20594659;28;20231;-77
2021/01/27 12:05:47;;;;;;;3.80;1.47;;;17.20;99.90;;;;;;20604578;28;20226;-76
2021/01/27 12:15:51;;;;;;;5.70;1.23;;;16.70;99.90;;;;;;20605740;28;20323;-74
2021/01/27 12:25:55;;;;;;;1.70;1.10;;;16.70;99.90;;;;;;20611160;28;20911;-75
2021/01/27 12:36:00;;;;;;;1.73;1.23;;;17.20;99.90;;;;;;20605389;28;20611;-75
2021/01/27 12:46:05;;;;;;;2.07;1.63;;;17.60;99.90;;;;;;20605405;28;20210;-74
2021/01/27 12:56:09;;;;;;;3.70;1.33;;;17.60;99.90;;;;;;20605125;28;20242;-73
2021/01/27 13:06:12;;;;;;;1.47;1.37;;;17.60;99.90;;;;;;20605836;28;20558;-73
2021/01/27 13:16:22;;;;;;;11.03;1.90;;;18.80;99.90;;;;;;20604578;28;20220;-72
2021/01/27 13:26:30;;;;;;;1.80;1.13;;;18.90;99.90;;;;;;20603106;28;20235;-74
2021/01/27 13:36:39;;;;;;;4.03;1.97;;;19.80;99.90;;;;;;20607026;28;20381;-74
2021/01/27 13:46:44;;;;;;;3.90;1.73;;;19.70;99.90;;;;;;20613060;28;20305;-73
2021/01/27 13:56:48;;;;;;;2.23;1.30;;;19.80;99.90;;;;;;20612989;28;20215;-74
2021/01/27 14:06:51;;;;;;;1.90;1.23;;;20.10;99.90;;;;;;20616446;28;20329;-73
2021/01/27 14:16:55;;;;;;;1.67;0.93;;;21.10;99.90;;;;;;20617092;28;20593;-72
2021/01/27 14:37:34;;;;;;;2.07;1.33;;;18.70;99.90;;;;;;20613150;28;20483;-73
2021/01/27 14:47:36;;;;;;;2.90;0.90;;;18.40;99.90;;;;;;20538031;28;20199;-74
2021/01/27 14:57:49;;;;;;;1.60;1.50;;;19.10;99.90;;;;;;20614504;28;20267;-77
2021/01/27 15:07:57;;;;;;;17.63;1.63;;;20.00;99.90;;;;;;20613981;28;20198;-75
2021/01/27 15:18:01;;;;;;;1.00;0.90;;;19.60;99.90;;;;;;20615104;28;20275;-73
2021/01/27 15:28:12;;;;;;;2.33;1.40;;;18.40;99.90;;;;;;20596870;28;20764;-75
2021/01/27 15:38:18;;;;;;;1.90;1.13;;;18.70;99.90;;;;;;20607288;28;20285;-74
2021/01/27 15:48:21;;;;;;;2.67;1.20;;;18.20;99.90;;;;;;20609040;28;20196;-74
2021/01/27 15:58:27;;;;;;;2.40;1.50;;;18.80;99.90;;;;;;20603821;28;20285;-82
2021/01/27 16:08:30;;;;;;;2.37;1.43;;;17.60;99.90;;;;;;20607193;28;20256;-74
2021/01/27 16:18:37;;;;;;;3.43;1.50;;;17.10;99.90;;;;;;20606683;28;20238;-74
2021/01/27 16:28:42;;;;;;;0.53;0.53;;;16.50;99.90;;;;;;20605424;28;20227;-75
2021/01/27 16:49:10;;;;;;;1.17;0.50;;;14.60;99.90;;;;;;20602894;28;20471;-74
2021/01/27 16:59:14;;;;;;;2.33;0.70;;;14.10;99.90;;;;;;20604811;28;21007;-74
2021/01/27 17:09:18;;;;;;;2.37;1.33;;;13.70;99.90;;;;;;20618519;28;20227;-72
2021/01/27 17:19:23;;;;;;;2.43;1.30;;;13.50;99.90;;;;;;20621061;28;20231;-73
2021/01/27 17:41:38;;;;;;;1.37;1.27;;;12.90;99.90;;;;;;20366754;29;20237;-73
2021/01/27 17:51:56;;;;;;;;;;;;;;;;;;;;;
2021/01/27 18:02:28;;;;;;;0.60;0.60;;;12.10;99.90;;;;;;20339067;29;20674;-71
2021/01/27 18:12:35;;;;;;;5.17;1.87;;;12.10;99.90;;;;;;20468896;28;20200;-72
2021/01/27 18:22:47;;;;;;;1.67;1.57;;;12.00;99.90;;;;;;20617271;28;20222;-72
2021/01/27 18:32:59;;;;;;;0.40;0.30;;;11.80;99.90;;;;;;20613339;28;20308;-69
2021/01/27 18:43:05;;;;;;;1.37;0.70;;;11.50;99.90;;;;;;20616054;28;20354;-70
2021/01/27 18:53:10;;;;;;;3.23;1.93;;;11.50;99.90;;;;;;20614441;28;20218;-71
2021/01/27 19:03:14;;;;;;;1.17;0.83;;;11.50;99.90;;;;;;20614306;28;20234;-70
2021/01/27 19:13:17;;;;;;;1.33;0.93;;;11.60;99.90;;;;;;20614124;28;20536;-70
2021/01/27 19:23:20;;;;;;;4.17;1.80;;;11.30;99.90;;;;;;20613005;28;20670;-70
2021/01/27 19:33:23;;;;;;;1.50;1.40;;;11.20;99.90;;;;;;20610795;28;20219;-68
2021/01/27 19:43:27;;;;;;;2.10;0.90;;;11.00;99.90;;;;;;20610997;28;20483;-69
2021/01/27 19:53:30;;;;;;;1.10;0.60;;;10.80;99.90;;;;;;20607963;28;20249;-70
2021/01/27 20:03:33;;;;;;;1.83;0.83;;;10.60;99.90;;;;;;20611114;28;20643;-69
2021/01/27 20:13:36;;;;;;;1.07;1.00;;;10.80;99.90;;;;;;20608502;28;20199;-69
2021/01/27 20:23:40;;;;;;;1.23;0.87;;;11.00;99.90;;;;;;20609073;28;20254;-70
2021/01/27 20:33:42;;;;;;;1.57;1.13;;;11.30;99.90;;;;;;20590352;28;20310;-67
2021/01/27 20:43:46;;;;;;;0.47;0.47;;;11.50;99.90;;;;;;20617949;28;20318;-70
2021/01/27 20:53:50;;;;;;;0.50;0.50;;;11.10;99.90;;;;;;20621410;28;20196;-70
2021/01/27 21:03:56;;;;;;;0.40;0.40;;;11.20;99.90;;;;;;20619602;28;20242;-71
2021/01/27 21:13:58;;;;;;;0.70;0.70;;;11.00;99.90;;;;;;20604471;28;20270;-69
2021/01/27 21:24:02;;;;;;;1.70;0.80;;;11.00;99.90;;;;;;20618311;28;20341;-70
2021/01/27 21:34:05;;;;;;;0.30;0.30;;;10.80;99.90;;;;;;20592588;28;20304;-70
2021/01/27 21:44:09;;;;;;;0.77;0.77;;;10.30;99.90;;;;;;20538750;28;20235;-71
2021/01/27 21:54:11;;;;;;;0.47;0.37;;;10.20;99.90;;;;;;20596506;28;20200;-72
2021/01/27 22:04:15;;;;;;;0.97;0.43;;;10.50;99.90;;;;;;20617793;28;20234;-72
2021/01/27 22:14:18;;;;;;;0.73;0.70;;;10.50;99.90;;;;;;20617612;28;20198;-71
2021/01/27 22:24:21;;;;;;;1.20;1.17;;;10.60;99.90;;;;;;20598683;28;20242;-73
2021/01/27 22:34:24;;;;;;;0.30;0.30;;;10.40;99.90;;;;;;20614545;28;20437;-72
2021/01/27 22:44:28;;;;;;;0.20;0.20;;;10.40;99.90;;;;;;20631519;28;20230;-70
2021/01/27 22:54:31;;;;;;;1.33;0.90;;;10.50;99.90;;;;;;20615015;28;20229;-72
2021/01/27 23:04:35;;;;;;;0.20;0.20;;;10.00;99.90;;;;;;20612778;28;20576;-72
2021/01/27 23:14:38;;;;;;;0.60;0.50;;;9.70;99.90;;;;;;20614235;28;20204;-71
2021/01/27 23:24:48;;;;;;;0.27;0.27;;;9.90;99.90;;;;;;20611739;28;20234;-72
2021/01/27 23:34:51;;;;;;;2.00;0.37;;;9.60;99.90;;;;;;20579142;28;20235;-72
2021/01/27 23:44:54;;;;;;;6.90;1.40;;;9.50;99.90;;;;;;20532150;28;20242;-72
2021/01/27 23:54:57;;;;;;;0.53;0.53;;;9.30;99.90;;;;;;20595017;28;20211;-71
